createdAt,value
2023-05-21T00:01:48.504Z,19.39
2023-05-21T00:04:18.131Z,19.37
2023-05-21T00:06:45.952Z,19.36
2023-05-21T00:09:13.792Z,19.34
2023-05-21T00:11:43.493Z,19.34
2023-05-21T00:14:11.322Z,19.30
2023-05-21T00:16:39.176Z,19.29
2023-05-21T00:19:07.590Z,19.27
2023-05-21T00:21:35.412Z,19.24
2023-05-21T00:24:03.212Z,19.22
2023-05-21T00:26:31.489Z,19.20
2023-05-21T00:29:00.843Z,19.18
2023-05-21T00:31:28.650Z,19.13
2023-05-21T00:33:56.923Z,19.10
2023-05-21T00:36:25.210Z,19.07
2023-05-21T00:38:53.056Z,19.03
2023-05-21T00:41:23.253Z,19.00
2023-05-21T00:43:51.070Z,18.97
2023-05-21T00:46:22.378Z,18.91
2023-05-21T00:48:51.669Z,18.91
2023-05-21T00:51:21.839Z,18.90
2023-05-21T00:53:52.558Z,18.88
2023-05-21T00:56:21.872Z,18.84
2023-05-21T00:58:51.801Z,18.81
2023-05-21T01:01:21.745Z,18.75
2023-05-21T01:03:49.613Z,18.75
2023-05-21T01:06:17.426Z,18.73
2023-05-21T01:08:45.739Z,18.71
2023-05-21T01:11:15.049Z,18.67
2023-05-21T01:13:43.594Z,18.63
2023-05-21T01:16:13.987Z,18.60
2023-05-21T01:18:45.218Z,18.58
2023-05-21T01:21:13.655Z,18.54
2023-05-21T01:23:43.494Z,18.52
2023-05-21T01:26:12.961Z,18.47
2023-05-21T01:28:40.809Z,18.44
2023-05-21T01:31:18.367Z,18.44
2023-05-21T01:33:51.100Z,18.42
2023-05-21T01:36:26.721Z,18.40
2023-05-21T01:39:02.064Z,18.37
2023-05-21T01:41:33.976Z,18.32
2023-05-21T01:44:03.223Z,18.30
2023-05-21T01:46:34.776Z,18.28
2023-05-21T01:49:03.745Z,18.24
2023-05-21T01:51:32.149Z,18.23
2023-05-21T01:54:01.331Z,18.22
2023-05-21T01:56:29.185Z,18.20
2023-05-21T01:58:59.782Z,18.17
2023-05-21T02:01:30.154Z,18.15
2023-05-21T02:03:58.575Z,18.11
2023-05-21T02:06:26.871Z,18.10
2023-05-21T02:08:55.536Z,18.08
2023-05-21T02:11:24.795Z,18.06
2023-05-21T02:13:52.799Z,18.05
2023-05-21T02:16:22.507Z,18.02
2023-05-21T02:18:52.225Z,17.99
2023-05-21T02:21:20.899Z,18.05
2023-05-21T02:23:48.873Z,18.03
2023-05-21T02:26:17.480Z,18.01
2023-05-21T02:28:46.996Z,17.98
2023-05-21T02:31:14.828Z,17.95
2023-05-21T02:33:43.117Z,17.94
2023-05-21T02:36:13.493Z,17.90
2023-05-21T02:38:43.444Z,17.88
2023-05-21T02:41:11.920Z,17.86
2023-05-21T02:43:39.978Z,17.84
2023-05-21T02:46:09.564Z,17.84
2023-05-21T02:48:37.222Z,17.89
2023-05-21T02:51:05.429Z,17.86
2023-05-21T02:53:33.290Z,17.82
2023-05-21T02:56:01.191Z,17.78
2023-05-21T02:58:29.234Z,17.74
2023-05-21T03:00:57.088Z,17.73
2023-05-21T03:03:26.406Z,17.71
2023-05-21T03:05:54.757Z,17.68
2023-05-21T03:08:22.570Z,17.67
2023-05-21T03:10:50.393Z,17.63
2023-05-21T03:13:18.608Z,17.60
2023-05-21T03:15:46.599Z,17.56
2023-05-21T03:18:14.527Z,17.54
2023-05-21T03:20:45.882Z,17.53
2023-05-21T03:23:16.469Z,17.50
2023-05-21T03:25:46.325Z,17.47
2023-05-21T03:28:14.176Z,17.42
2023-05-21T03:30:41.991Z,17.39
2023-05-21T03:33:11.482Z,17.31
2023-05-21T03:35:39.314Z,17.24
2023-05-21T03:38:08.708Z,17.22
2023-05-21T03:40:36.861Z,17.16
2023-05-21T03:43:04.722Z,17.08
2023-05-21T03:45:32.523Z,17.06
2023-05-21T03:48:02.276Z,17.02
2023-05-21T03:50:30.186Z,16.94
2023-05-21T03:52:58.005Z,16.89
2023-05-21T03:55:27.549Z,16.88
2023-05-21T03:57:55.179Z,16.86
2023-05-21T04:00:23.022Z,16.79
2023-05-21T04:02:51.201Z,16.76
2023-05-21T04:05:19.110Z,16.76
2023-05-21T04:07:47.433Z,16.75
2023-05-21T04:10:15.398Z,16.69
2023-05-21T04:12:44.588Z,16.66
2023-05-21T04:15:12.794Z,16.62
2023-05-21T04:17:40.860Z,16.64
2023-05-21T04:20:09.713Z,16.60
2023-05-21T04:22:37.775Z,16.63
2023-05-21T04:25:06.467Z,16.60
2023-05-21T04:27:34.587Z,16.64
2023-05-21T04:30:05.025Z,16.62
2023-05-21T04:32:33.575Z,16.62
2023-05-21T04:35:02.036Z,16.65
2023-05-21T04:37:31.438Z,16.69
2023-05-21T04:40:01.821Z,16.66
2023-05-21T04:42:30.422Z,16.66
2023-05-21T04:44:59.450Z,16.66
2023-05-21T04:47:30.549Z,16.68
2023-05-21T04:49:59.379Z,16.66
2023-05-21T04:52:27.227Z,16.67
2023-05-21T04:54:55.507Z,16.68
2023-05-21T04:57:24.521Z,16.71
2023-05-21T04:59:52.731Z,16.72
2023-05-21T05:02:21.015Z,16.69
2023-05-21T05:04:50.268Z,16.69
2023-05-21T05:07:18.623Z,16.74
2023-05-21T05:09:46.731Z,16.75
2023-05-21T05:12:14.578Z,16.76
2023-05-21T05:14:42.411Z,16.73
2023-05-21T05:17:10.879Z,16.73
2023-05-21T05:19:38.680Z,16.75
2023-05-21T05:22:08.121Z,16.75
2023-05-21T05:24:36.214Z,16.80
2023-05-21T05:27:04.104Z,16.83
2023-05-21T05:29:31.953Z,16.83
2023-05-21T05:31:59.976Z,16.85
2023-05-21T05:34:27.830Z,16.86
2023-05-21T05:36:57.239Z,16.81
2023-05-21T05:39:26.698Z,16.88
2023-05-21T05:41:54.577Z,16.81
2023-05-21T05:44:22.387Z,16.88
2023-05-21T05:46:50.484Z,16.83
2023-05-21T05:49:18.321Z,16.90
2023-05-21T05:51:46.158Z,16.90
2023-05-21T05:54:14.058Z,16.91
2023-05-21T05:56:43.255Z,16.93
2023-05-21T05:59:11.063Z,16.94
2023-05-21T06:01:38.932Z,16.96
2023-05-21T06:04:06.776Z,16.96
2023-05-21T06:06:34.954Z,17.00
2023-05-21T06:09:02.929Z,17.08
2023-05-21T06:11:30.858Z,17.02
2023-05-21T06:14:01.729Z,16.93
2023-05-21T06:16:31.324Z,16.99
2023-05-21T06:18:59.579Z,17.03
2023-05-21T06:21:27.759Z,17.11
2023-05-21T06:23:55.561Z,17.12
2023-05-21T06:26:23.822Z,17.17
2023-05-21T06:28:51.649Z,17.22
2023-05-21T06:31:22.387Z,17.17
2023-05-21T06:33:50.862Z,17.17
2023-05-21T06:36:19.902Z,17.23
2023-05-21T06:38:47.876Z,17.30
2023-05-21T06:41:15.684Z,17.27
2023-05-21T06:43:43.741Z,17.33
2023-05-21T06:46:11.617Z,17.39
2023-05-21T06:48:40.799Z,17.32
2023-05-21T06:51:08.642Z,17.40
2023-05-21T06:53:36.490Z,17.47
2023-05-21T06:56:04.542Z,17.47
2023-05-21T06:58:32.398Z,17.61
2023-05-21T07:01:00.239Z,17.58
2023-05-21T07:03:28.637Z,17.52
2023-05-21T07:05:58.939Z,17.70
2023-05-21T07:08:27.253Z,17.78
2023-05-21T07:10:56.724Z,17.76
2023-05-21T07:13:24.588Z,17.93
2023-05-21T07:15:52.388Z,18.05
2023-05-21T07:18:20.736Z,18.16
2023-05-21T07:20:48.615Z,18.28
2023-05-21T07:23:17.887Z,18.34
2023-05-21T07:25:46.026Z,18.40
2023-05-21T07:28:13.873Z,18.48
2023-05-21T07:30:41.722Z,18.57
2023-05-21T07:33:09.885Z,18.60
2023-05-21T07:35:37.940Z,18.55
2023-05-21T07:38:08.291Z,18.68
2023-05-21T07:40:37.594Z,18.74
2023-05-21T07:43:05.419Z,18.94
2023-05-21T07:45:33.270Z,18.98
2023-05-21T07:48:01.367Z,19.08
2023-05-21T07:50:29.316Z,19.09
2023-05-21T07:52:57.146Z,19.21
2023-05-21T07:55:25.017Z,19.30
2023-05-21T07:57:54.252Z,19.28
2023-05-21T08:00:26.019Z,19.37
2023-05-21T08:02:53.899Z,19.34
2023-05-21T08:05:23.492Z,19.47
2023-05-21T08:07:51.428Z,19.57
2023-05-21T08:10:19.674Z,19.67
2023-05-21T08:12:47.647Z,19.66
2023-05-21T08:15:17.285Z,19.73
2023-05-21T08:17:45.148Z,19.85
2023-05-21T08:20:14.452Z,19.97
2023-05-21T08:22:43.327Z,20.05
2023-05-21T08:25:11.194Z,20.17
2023-05-21T08:27:39.180Z,20.31
2023-05-21T08:30:08.993Z,20.35
2023-05-21T08:32:38.291Z,20.53
2023-05-21T08:35:07.296Z,20.54
2023-05-21T08:37:35.372Z,20.67
2023-05-21T08:40:03.958Z,20.67
2023-05-21T08:42:44.153Z,20.76
2023-05-21T08:45:13.721Z,20.65
2023-05-21T08:47:44.957Z,20.80
2023-05-21T08:50:14.435Z,20.89
2023-05-21T08:52:42.561Z,21.04
2023-05-21T08:55:11.034Z,21.03
2023-05-21T08:57:43.816Z,21.12
2023-05-21T09:00:12.795Z,21.17
2023-05-21T09:02:43.575Z,21.00
2023-05-21T09:05:14.502Z,21.18
2023-05-21T09:07:50.393Z,21.31
2023-05-21T09:10:25.389Z,21.31
2023-05-21T09:12:53.307Z,21.32
2023-05-21T09:15:21.418Z,21.40
2023-05-21T09:17:49.506Z,21.40
2023-05-21T09:20:19.266Z,21.49
2023-05-21T09:22:49.084Z,21.53
2023-05-21T09:25:18.445Z,21.58
2023-05-21T09:27:46.295Z,21.73
2023-05-21T09:30:16.181Z,21.86
2023-05-21T09:32:45.647Z,21.87
2023-05-21T09:35:14.409Z,21.88
2023-05-21T09:37:45.316Z,21.93
2023-05-21T09:40:15.264Z,22.02
2023-05-21T09:42:44.944Z,22.10
2023-05-21T09:45:13.526Z,22.20
2023-05-21T09:47:44.165Z,22.27
2023-05-21T09:50:12.697Z,22.28
2023-05-21T09:52:42.384Z,22.23
2023-05-21T09:55:15.029Z,22.23
2023-05-21T09:57:44.069Z,22.27
2023-05-21T10:00:20.148Z,22.43
2023-05-21T10:02:49.407Z,22.38
2023-05-21T10:05:17.985Z,22.50
2023-05-21T10:07:51.043Z,22.59
2023-05-21T10:10:22.744Z,22.64
2023-05-21T10:12:56.626Z,22.36
2023-05-21T10:15:25.872Z,22.46
2023-05-21T10:17:56.773Z,22.59
2023-05-21T10:20:25.269Z,22.54
2023-05-21T10:22:54.124Z,22.61
2023-05-21T10:25:24.819Z,22.78
2023-05-21T10:27:54.788Z,22.84
2023-05-21T10:30:22.841Z,22.96
2023-05-21T10:32:51.231Z,23.01
2023-05-21T10:35:19.532Z,22.92
2023-05-21T10:37:48.043Z,22.86
2023-05-21T10:40:16.048Z,22.97
2023-05-21T10:45:54.472Z,22.88
2023-05-21T10:48:36.646Z,22.59
2023-05-21T10:51:26.241Z,22.91
2023-05-21T10:54:20.604Z,23.04
2023-05-21T10:56:58.530Z,23.14
2023-05-21T10:59:38.002Z,23.01
2023-05-21T11:02:08.177Z,22.99
2023-05-21T11:04:39.921Z,23.18
2023-05-21T11:07:08.394Z,23.17
2023-05-21T11:09:36.312Z,23.17
2023-05-21T11:12:04.728Z,23.25
2023-05-21T11:14:36.417Z,23.36
2023-05-21T11:17:05.445Z,23.42
2023-05-21T11:19:40.042Z,23.52
2023-05-21T11:22:21.830Z,23.44
2023-05-21T11:24:51.426Z,23.44
2023-05-21T11:27:33.847Z,23.41
2023-05-21T11:30:05.761Z,23.33
2023-05-21T11:32:33.734Z,23.22
2023-05-21T11:35:03.176Z,23.27
2023-05-21T11:37:32.462Z,23.10
2023-05-21T11:40:22.412Z,23.10
2023-05-21T11:42:52.403Z,23.19
2023-05-21T11:45:21.498Z,23.15
2023-05-21T11:47:50.075Z,23.13
2023-05-21T11:50:20.440Z,23.17
2023-05-21T11:52:48.597Z,23.19
2023-05-21T11:55:17.310Z,23.37
2023-05-21T11:57:48.242Z,23.44
2023-05-21T12:00:17.473Z,23.55
2023-05-21T12:02:47.476Z,23.57
2023-05-21T12:05:15.930Z,23.52
2023-05-21T12:07:50.054Z,23.63
2023-05-21T12:10:18.459Z,23.64
2023-05-21T12:12:54.608Z,23.62
2023-05-21T12:15:25.123Z,23.73
2023-05-21T12:17:53.647Z,23.86
2023-05-21T12:20:21.822Z,23.86
2023-05-21T12:22:51.344Z,23.88
2023-05-21T12:25:21.068Z,23.82
2023-05-21T12:27:52.683Z,23.87
2023-05-21T12:30:21.910Z,23.96
2023-05-21T12:32:50.267Z,23.99
2023-05-21T12:35:24.877Z,23.94
2023-05-21T12:37:54.338Z,24.04
2023-05-21T12:40:22.345Z,24.07
2023-05-21T12:42:51.800Z,24.17
2023-05-21T12:45:21.064Z,24.27
2023-05-21T12:47:50.633Z,24.37
2023-05-21T12:50:22.791Z,24.36
2023-05-21T12:52:50.600Z,24.29
2023-05-21T12:55:19.968Z,24.36
2023-05-21T12:57:48.161Z,24.27
2023-05-21T13:00:16.129Z,24.42
2023-05-21T13:02:45.826Z,24.51
2023-05-21T13:05:17.954Z,24.45
2023-05-21T13:07:47.415Z,24.43
2023-05-21T13:10:17.264Z,24.45
2023-05-21T13:12:46.724Z,24.51
2023-05-21T13:15:16.112Z,24.57
2023-05-21T13:17:44.004Z,24.59
2023-05-21T13:20:13.217Z,24.66
2023-05-21T13:22:43.672Z,24.66
2023-05-21T13:25:12.459Z,24.68
2023-05-21T13:27:40.534Z,24.78
2023-05-21T13:30:12.081Z,24.69
2023-05-21T13:32:41.340Z,24.79
2023-05-21T13:35:10.224Z,24.82
2023-05-21T13:37:38.365Z,24.79
2023-05-21T13:40:07.728Z,24.88
2023-05-21T13:42:37.737Z,24.84
2023-05-21T13:45:06.423Z,24.96
2023-05-21T13:47:38.455Z,25.01
2023-05-21T13:50:09.290Z,24.87
2023-05-21T13:52:37.134Z,24.85
2023-05-21T13:55:05.950Z,24.93
2023-05-21T13:57:34.206Z,24.94
2023-05-21T14:00:02.443Z,25.07
2023-05-21T14:02:31.125Z,25.12
2023-05-21T14:05:00.668Z,25.10
2023-05-21T14:07:28.616Z,25.10
2023-05-21T14:09:57.024Z,25.16
2023-05-21T14:12:24.932Z,25.18
2023-05-21T14:14:52.926Z,25.27
2023-05-21T14:17:21.190Z,25.18
2023-05-21T14:19:49.158Z,25.26
2023-05-21T14:22:21.938Z,25.20
2023-05-21T14:24:49.849Z,25.20
2023-05-21T14:27:17.946Z,25.25
2023-05-21T14:29:46.034Z,25.19
2023-05-21T14:32:13.861Z,25.25
2023-05-21T14:34:41.734Z,25.24
2023-05-21T14:37:09.885Z,25.27
2023-05-21T14:39:39.101Z,25.21
2023-05-21T14:42:07.053Z,25.26
2023-05-21T14:44:35.119Z,25.30
2023-05-21T14:47:02.940Z,25.38
2023-05-21T14:49:30.740Z,25.47
2023-05-21T14:51:58.810Z,25.47
2023-05-21T14:54:26.587Z,25.55
2023-05-21T14:56:55.767Z,25.54
2023-05-21T14:59:23.813Z,25.58
2023-05-21T15:01:51.771Z,25.71
2023-05-21T15:04:19.644Z,25.78
2023-05-21T15:06:47.807Z,25.71
2023-05-21T15:09:15.714Z,25.63
2023-05-21T15:11:46.089Z,25.55
2023-05-21T15:14:18.517Z,25.67
2023-05-21T15:16:46.406Z,25.70
2023-05-21T15:19:14.304Z,25.72
2023-05-21T15:21:42.447Z,25.75
2023-05-21T15:24:11.182Z,25.68
2023-05-21T15:26:39.062Z,25.68
2023-05-21T15:29:07.340Z,25.59
2023-05-21T15:31:36.517Z,25.61
2023-05-21T15:34:04.455Z,25.58
2023-05-21T15:36:32.532Z,25.59
2023-05-21T15:39:03.349Z,25.65
2023-05-21T15:41:31.154Z,25.61
2023-05-21T15:43:59.137Z,25.69
2023-05-21T15:46:26.983Z,25.63
2023-05-21T15:48:56.578Z,25.67
2023-05-21T15:51:24.613Z,25.75
2023-05-21T15:53:52.400Z,25.72
2023-05-21T15:56:21.751Z,25.73
2023-05-21T15:58:49.574Z,25.76
2023-05-21T16:01:17.557Z,25.78
2023-05-21T16:03:45.463Z,25.72
2023-05-21T16:06:14.845Z,25.61
2023-05-21T16:08:42.458Z,25.49
2023-05-21T16:11:10.322Z,25.61
2023-05-21T16:13:38.289Z,25.63
2023-05-21T16:16:06.622Z,25.57
2023-05-21T16:18:34.435Z,25.61
2023-05-21T16:21:02.447Z,25.61
2023-05-21T16:23:33.180Z,25.56
2023-05-21T16:26:01.230Z,25.65
2023-05-21T16:28:29.781Z,25.61
2023-05-21T16:30:57.643Z,25.62
2023-05-21T16:33:25.741Z,25.54
2023-05-21T16:35:54.426Z,25.65
2023-05-21T16:38:22.628Z,25.69
2023-05-21T16:40:51.792Z,25.77
2023-05-21T16:43:19.770Z,25.78
2023-05-21T16:45:48.869Z,25.74
2023-05-21T16:48:17.402Z,25.74
2023-05-21T16:50:46.906Z,25.76
2023-05-21T16:53:14.862Z,25.59
2023-05-21T16:55:43.308Z,25.65
2023-05-21T16:58:13.713Z,25.55
2023-05-21T17:00:41.552Z,25.59
2023-05-21T17:03:09.583Z,25.56
2023-05-21T17:05:37.892Z,25.33
2023-05-21T17:08:06.278Z,25.37
2023-05-21T17:10:34.693Z,25.48
2023-05-21T17:13:17.523Z,25.56
2023-05-21T17:15:50.886Z,25.58
2023-05-21T17:18:19.165Z,25.63
2023-05-21T17:20:46.990Z,25.65
2023-05-21T17:23:14.974Z,25.59
2023-05-21T17:25:43.166Z,25.57
2023-05-21T17:28:11.216Z,25.59
2023-05-21T17:30:39.576Z,25.64
2023-05-21T17:33:10.608Z,25.67
2023-05-21T17:35:39.009Z,25.65
2023-05-21T17:38:07.157Z,25.72
2023-05-21T17:40:35.365Z,25.74
2023-05-21T17:43:04.330Z,25.69
2023-05-21T17:45:32.217Z,25.67
2023-05-21T17:48:00.977Z,25.67
2023-05-21T17:50:30.491Z,25.67
2023-05-21T17:52:58.489Z,25.67
2023-05-21T17:55:27.144Z,25.65
2023-05-21T17:57:54.957Z,25.48
2023-05-21T18:00:22.857Z,25.56
2023-05-21T18:02:51.319Z,25.58
2023-05-21T18:05:19.160Z,25.54
2023-05-21T18:07:48.356Z,25.48
2023-05-21T18:10:16.944Z,25.45
2023-05-21T18:12:46.206Z,25.43
2023-05-21T18:15:14.612Z,25.31
2023-05-21T18:17:43.028Z,25.38
2023-05-21T18:20:12.121Z,25.27
2023-05-21T18:22:40.030Z,25.17
2023-05-21T18:25:11.222Z,24.98
2023-05-21T18:27:39.096Z,24.91
2023-05-21T18:30:08.524Z,24.83
2023-05-21T18:32:39.195Z,24.84
2023-05-21T18:35:08.232Z,24.83
2023-05-21T18:37:37.261Z,24.74
2023-05-21T18:42:57.342Z,24.56
2023-05-21T18:45:25.760Z,24.47
2023-05-21T18:47:53.717Z,24.42
2023-05-21T18:50:21.760Z,24.32
2023-05-21T18:52:51.665Z,24.25
2023-05-21T18:55:20.792Z,24.18
2023-05-21T18:57:48.638Z,24.07
2023-05-21T19:00:19.201Z,24.07
2023-05-21T19:02:47.316Z,24.06
2023-05-21T19:05:15.198Z,23.99
2023-05-21T19:07:43.511Z,23.86
2023-05-21T19:10:13.133Z,23.69
2023-05-21T19:12:42.336Z,23.69
2023-05-21T19:15:11.986Z,23.70
2023-05-21T19:17:41.274Z,23.65
2023-05-21T19:20:10.679Z,23.62
2023-05-21T19:22:39.310Z,23.52
2023-05-21T19:25:08.008Z,23.57
2023-05-21T19:27:35.858Z,23.46
2023-05-21T19:30:04.609Z,23.42
2023-05-21T19:32:32.437Z,23.41
2023-05-21T19:35:01.998Z,23.43
2023-05-21T19:37:30.393Z,23.43
2023-05-21T19:39:58.224Z,23.44
2023-05-21T19:42:26.872Z,23.37
2023-05-21T19:44:55.004Z,23.38
2023-05-21T19:47:22.876Z,23.38
2023-05-21T19:49:50.718Z,23.31
2023-05-21T19:52:20.533Z,23.31
2023-05-21T19:54:48.378Z,23.29
2023-05-21T19:57:16.487Z,23.30
2023-05-21T19:59:44.358Z,23.24
2023-05-21T20:02:15.124Z,23.17
2023-05-21T20:04:42.964Z,23.12
2023-05-21T20:07:11.433Z,23.10
2023-05-21T20:09:41.270Z,22.98
2023-05-21T20:12:09.544Z,22.96
2023-05-21T20:14:37.848Z,22.94
2023-05-21T20:17:07.092Z,22.85
2023-05-21T20:19:35.799Z,22.73
2023-05-21T20:22:03.956Z,22.70
2023-05-21T20:24:31.848Z,22.54
2023-05-21T20:27:01.971Z,22.51
2023-05-21T20:29:30.304Z,22.45
2023-05-21T20:31:58.129Z,22.41
2023-05-21T20:34:27.350Z,22.39
2023-05-21T20:36:58.414Z,22.38
2023-05-21T20:39:27.800Z,22.33
2023-05-21T20:41:56.005Z,22.35
2023-05-21T20:44:27.704Z,22.33
2023-05-21T20:46:55.676Z,22.29
2023-05-21T20:49:24.759Z,22.30
2023-05-21T20:51:53.072Z,22.29
2023-05-21T20:54:22.218Z,22.26
2023-05-21T20:56:55.005Z,22.22
2023-05-21T20:59:22.806Z,22.14
2023-05-21T21:01:52.564Z,22.14
2023-05-21T21:04:20.946Z,22.13
2023-05-21T21:06:50.224Z,22.11
2023-05-21T21:09:18.266Z,22.10
2023-05-21T21:11:46.350Z,22.10
2023-05-21T21:14:14.807Z,22.06
2023-05-21T21:16:42.801Z,22.06
2023-05-21T21:19:12.521Z,22.01
2023-05-21T21:21:40.428Z,21.98
2023-05-21T21:24:08.775Z,21.86
2023-05-21T21:26:36.927Z,21.89
2023-05-21T21:29:04.907Z,21.88
2023-05-21T21:31:32.769Z,21.80
2023-05-21T21:34:01.493Z,21.76
2023-05-21T21:36:31.247Z,21.76
2023-05-21T21:38:59.055Z,21.73
2023-05-21T21:41:27.420Z,21.73
2023-05-21T21:43:55.295Z,21.64
2023-05-21T21:46:23.459Z,21.65
2023-05-21T21:48:51.853Z,21.62
2023-05-21T21:51:23.199Z,21.60
2023-05-21T21:53:53.383Z,21.59
2023-05-21T21:56:22.073Z,21.59
2023-05-21T21:58:49.931Z,21.57
2023-05-21T22:01:18.832Z,21.56
2023-05-21T22:03:46.866Z,21.55
2023-05-21T22:06:14.705Z,21.52
2023-05-21T22:08:42.896Z,21.52
2023-05-21T22:11:12.277Z,21.52
2023-05-21T22:13:41.606Z,21.49
2023-05-21T22:16:12.288Z,21.48
2023-05-21T22:18:41.960Z,21.46
2023-05-21T22:21:10.645Z,21.45
2023-05-21T22:23:39.844Z,21.41
2023-05-21T22:26:08.207Z,21.39
2023-05-21T22:28:37.447Z,21.36
2023-05-21T22:31:06.628Z,21.30
2023-05-21T22:33:34.487Z,21.26
2023-05-21T22:36:02.340Z,21.20
2023-05-21T22:38:30.962Z,21.16
2023-05-21T22:40:58.870Z,21.11
2023-05-21T22:43:27.180Z,21.07
2023-05-21T22:45:57.004Z,21.03
2023-05-21T22:48:24.935Z,21.00
2023-05-21T22:50:53.421Z,20.95
2023-05-21T22:53:22.069Z,20.93
2023-05-21T22:55:49.954Z,20.88
2023-05-21T22:58:18.249Z,20.82
2023-05-21T23:00:46.572Z,20.79
2023-05-21T23:03:16.278Z,20.76
2023-05-21T23:05:44.592Z,20.73
2023-05-21T23:08:13.503Z,20.68
2023-05-21T23:10:41.583Z,20.64
2023-05-21T23:13:09.569Z,20.63
2023-05-21T23:15:39.312Z,20.59
2023-05-21T23:18:08.770Z,20.55
2023-05-21T23:20:41.796Z,20.54
2023-05-21T23:23:10.527Z,20.49
2023-05-21T23:25:38.511Z,20.44
2023-05-21T23:28:07.233Z,20.43
2023-05-21T23:30:35.105Z,20.39
2023-05-21T23:33:03.642Z,20.34
2023-05-21T23:35:32.031Z,20.34
2023-05-21T23:38:01.274Z,20.29
2023-05-21T23:40:29.095Z,20.27
2023-05-21T23:42:57.405Z,20.24
2023-05-21T23:45:25.246Z,20.19
2023-05-21T23:47:53.654Z,20.14
2023-05-21T23:50:22.506Z,20.13
2023-05-21T23:52:50.768Z,20.09
2023-05-21T23:55:19.989Z,20.06
2023-05-21T23:57:48.362Z,20.00
